Time;durP1;ratioP1;P1;durP2;ratioP2;P2;SDS_P1;SDS_P2;PMS_P1;PMS_P2;Temp;Humidity;BMP_temperature;BMP_pressure;BME280_temperature;BME280_humidity;BME280_pressure;Samples;Min_cycle;Max_cycle;Signal;HPM_P1;HPM_P2
2024/02/19 12:50:36;;;;;;;;;;;;;;;;;;5047128;27;12082;-73
2024/02/19 12:53:01;;;;;;;;;;;;;;;;;;4980389;28;11056;-80
2024/02/19 12:57:05;;;;;;;;;;;;;;;;;;4841643;27;11172;-79
2024/02/19 13:00:29;;;;;;;;;;;;;;;;;;4795645;27;11141;-65
2024/02/19 13:02:55;;;;;;;;;;;;;;;;;;5040451;27;10617;-65
2024/02/19 13:05:21;;;;;;;;;48.50;37.50;;;;;;;;5046244;28;11037;-73
2024/02/19 13:07:47;;;;;;;;;51.00;38.75;;;;;;;;5047733;28;8804;-74
2024/02/19 13:10:13;;;;;;;;;45.00;38.50;;;;;;;;5047345;28;11663;-72
2024/02/19 13:12:38;;;;;;;;;42.75;37.50;;;;;;;;5046705;28;8816;-74
2024/02/19 13:15:04;;;;;;;;;57.50;46.25;;;;;;;;5047593;28;8803;-67
2024/02/19 13:18:26;;;;;;;;;;;;;;;;;;4996750;27;13564;-74
2024/02/19 13:32:15;;;;;;;;;;;;;;;;;;4955864;27;10793;-81
2024/02/19 13:34:40;;;;;;;;;;;;;;;;;;5035915;28;10880;-77
2024/02/19 13:37:06;;;;;;;;;;;;;;;;;;5023910;28;10755;-73
2024/02/19 13:39:31;;;;;;;;;;;;;;;;;;5048861;28;7539;-73
2024/02/19 13:41:57;;;;;;;;;;;;;;;;;;5048749;28;7606;-73
2024/02/19 13:44:23;;;;;;;;;;;;;;;;;;5048732;28;7548;-80
2024/02/19 13:46:48;;;;;;;;;;;;;;;;;;5047330;28;7528;-75
2024/02/19 13:49:13;;;;;;;;;;;;;;;;;;5048538;28;8048;-76
2024/02/19 13:51:38;;;;;;;;;;;;;;;;;;5048611;28;7572;-84
2024/02/19 13:54:06;;;;;;;;;;;;;;;;;;5048668;28;7558;-76
2024/02/19 13:56:31;;;;;;;;;;;;;;;;;;5047892;28;8011;-77
2024/02/19 13:58:56;;;;;;;;;;;;;;;;;;5041763;28;7552;-77
2024/02/19 14:01:21;;;;;;;;;;;;;;;;;;5034792;28;7555;-77
2024/02/19 14:03:48;;;;;;;;;;;;;;;;;;5038755;28;7563;-78
2024/02/19 14:06:13;;;;;;;;;;;;;;;;;;5028169;28;7540;-77
2024/02/19 14:08:39;;;;;;;;;;;;;;;;;;5028207;28;7653;-77
2024/02/19 14:11:04;;;;;;;;;;;;;;;;;;5028265;28;8003;-77
2024/02/19 14:13:29;;;;;;;;;;;;;;;;;;5028538;28;7647;-76
2024/02/19 14:15:54;;;;;;;;;;;;;;;;;;5028142;28;7609;-78
2024/02/19 14:18:19;;;;;;;;;;;;;;;;;;5042233;28;7598;-77
2024/02/19 14:20:44;;;;;;;;;;;;;;;;;;5047984;28;7566;-77
2024/02/19 14:23:12;;;;;;;;;;;;;;;;;;5048592;28;7536;-76
2024/02/19 14:25:38;;;;;;;;;;;;;;;;;;5080823;28;7616;-77
2024/02/19 14:28:06;;;;;;;;;;;;;;;;;;5047920;28;7540;-77
2024/02/19 14:30:31;;;;;;;;;;;;;;;;;;5080024;28;7555;-77
2024/02/19 14:32:56;;;;;;;;;;;;;;;;;;5047504;28;7570;-77
2024/02/19 14:35:21;;;;;;;;;;;;;;;;;;5047733;28;7623;-77
2024/02/19 14:37:47;;;;;;;;;;;;;;;;;;5047736;28;7554;-76
2024/02/19 14:40:13;;;;;;;;;;;;;;;;;;5047792;28;7563;-75
2024/02/19 14:42:38;;;;;;;;;;;;;;;;;;5039818;28;7568;-76
2024/02/19 14:45:05;;;;;;;;;;;;;;;;;;5034653;28;7548;-76
2024/02/19 14:47:31;;;;;;;;;;;;;;;;;;5033994;28;7548;-76
2024/02/19 14:49:56;;;;;;;;;;;;;;;;;;5033886;28;7578;-76
2024/02/19 14:52:21;;;;;;;;;;;;;;;;;;5034016;28;7540;-76
2024/02/19 14:54:46;;;;;;;;;;;;;;;;;;5066054;28;7571;-76
2024/02/19 14:57:11;;;;;;;;;;;;;;;;;;5034142;28;7561;-76
2024/02/19 14:59:40;;;;;;;;;;;;;;;;;;5033953;28;7539;-76
2024/02/19 15:02:05;;;;;;;;;;;;;;;;;;5031629;28;7548;-76
2024/02/19 15:04:30;;;;;;;;;;;;;;;;;;5024409;28;7548;-76
2024/02/19 15:06:59;;;;;;;;;;;;;;;;;;5014959;28;7555;-76
2024/02/19 15:09:24;;;;;;;;;;;;;;;;;;5014212;28;8010;-76
2024/02/19 15:11:50;;;;;;;;;;;;;;;;;;5013946;28;8003;-76
2024/02/19 15:14:17;;;;;;;;;;;;;;;;;;5013979;28;7563;-76
2024/02/19 15:16:42;;;;;;;;;;;;;;;;;;5046590;28;7590;-75
2024/02/19 15:19:07;;;;;;;;;;;;;;;;;;5033564;28;7539;-75
2024/02/19 15:21:37;;;;;;;;;;;;;;;;;;5033676;28;7544;-76
2024/02/19 15:24:04;;;;;;;;;;;;;;;;;;5033672;28;7543;-76
2024/02/19 15:26:29;;;;;;;;;;;;;;;;;;5065549;28;7605;-76
2024/02/19 15:28:55;;;;;;;;;;;;;;;;;;5033583;28;7543;-76
2024/02/19 15:31:20;;;;;;;;;;;;;;;;;;5065284;28;7650;-76
2024/02/19 15:33:45;;;;;;;;;;;;;;;;;;5065176;28;7529;-76
2024/02/19 15:36:11;;;;;;;;;;;;;;;;;;5033247;28;7624;-76
2024/02/19 15:38:38;;;;;;;;;;;;;;;;;;5033600;28;7533;-76
2024/02/19 15:41:09;;;;;;;;;;;;;;;;;;5033164;28;7556;-75
2024/02/19 15:43:35;;;;;;;;;;;;;;;;;;5033039;28;7639;-75
2024/02/19 15:46:00;;;;;;;;;;;;;;;;;;5032999;28;7673;-76
2024/02/19 15:48:25;;;;;;;;;;;;;;;;;;5032715;28;7535;-78
2024/02/19 15:50:50;;;;;;;;;;;;;;;;;;5032925;28;7568;-76
2024/02/19 15:53:16;;;;;;;;;;;;;;;;;;5064282;28;7529;-77
2024/02/19 15:55:41;;;;;;;;;;;;;;;;;;5032560;28;7548;-72
2024/02/19 15:58:06;;;;;;;;;;;;;;;;;;5032408;28;7552;-74
2024/02/19 16:00:35;;;;;;;;;;;;;;;;;;5064203;28;7570;-75
2024/02/19 18:09:16;;;;;;;;;;;;;;;;;;5084302;27;13911;-38
2024/02/19 18:17:39;;;;;;;;;;;;;;;;;;5075396;27;10697;-35
2024/02/19 18:24:28;;;;;;;;;;;;;;;;;;5091939;27;10812;-59
2024/02/19 19:21:54;;;;;;;;;;;;;;;;;;4870077;27;1344562;-74
2024/02/19 19:24:19;;;;;;;;;;;;;;;;;;4838909;27;121753;-74
2024/02/19 19:26:44;;;;;;;;;;;;;;;;;;4889325;28;14165;-68
2024/02/19 19:29:09;;;;;;;;;;;;;;;;;;4928528;28;14925;-68
2024/02/19 19:31:35;;;;;;;;;;;;;;;;;;4933923;28;14395;-66
2024/02/19 19:34:00;;;;;;;;;;;;;;;;;;4939486;28;14690;-67
2024/02/19 19:36:25;;;;;;;;;;;;;;;;;;4942959;28;14274;-69
2024/02/19 19:38:50;;;;;;;;;;;;;;;;;;4940630;28;13766;-67
2024/02/19 19:41:16;;;;;;;;;;;;;;;;;;4938385;28;14522;-68
2024/02/19 19:43:41;;;;;;;;;;;;;;;;;;4942787;28;14225;-68
2024/02/19 19:46:06;;;;;;;;;;;;;;;;;;4944456;28;14613;-67
2024/02/19 19:48:32;;;;;;;;;;;;;;;;;;4931608;28;15534;-72
2024/02/19 19:50:57;;;;;;;;;;;;;;;;;;4951415;28;14076;-72
2024/02/19 19:53:25;;;;;;;;;;;;;;;;;;4960900;28;14153;-75
2024/02/19 19:55:54;;;;;;;;;;;;;;;;;;4980436;28;14832;-69
2024/02/19 19:58:20;;;;;;;;;;;;;;;;;;4976824;28;11562;-70
2024/02/19 21:03:44;;;;;;;;;;;;;;;;;;5105621;27;14114;-72
2024/02/19 21:06:09;;;;;;;;;;;;;;;;;;5106104;28;12414;-73
2024/02/19 21:08:34;;;;;;;;;;;;;;;;;;5101727;28;13127;-70
2024/02/19 21:11:02;;;;;;;;;;;;;;;;;;5106068;28;13760;-74
2024/02/19 21:13:27;;;;;;;;;;;;;;;;;;5103177;28;14792;-71
2024/02/19 21:15:52;;;;;;;;;;;;;;;;;;5105537;28;14723;-72
2024/02/19 21:18:17;;;;;;;;;;;;;;;;;;5105601;28;14073;-72
2024/02/19 21:20:44;;;;;;;;;;;;;;;;;;5105291;28;14742;-72
2024/02/19 21:23:09;;;;;;;;;;;;;;;;;;5105016;28;14042;-73
2024/02/19 21:25:34;;;;;;;;;;;;;;;;;;5103746;28;15527;-73
2024/02/19 21:27:59;;;;;;;;;;;;;;;;;;5104826;28;14695;-70
2024/02/19 21:30:24;;;;;;;;;;;;;;;;;;5104554;28;14715;-70
2024/02/19 21:32:52;;;;;;;;;;;;;;;;;;5054936;27;13997;-71
2024/02/19 21:35:17;;;;;;;;;;;;;;;;;;5061427;28;15106;-71
2024/02/19 21:37:42;;;;;;;;;;;;;;;;;;5064130;28;14706;-71
2024/02/19 21:40:08;;;;;;;;;;;;;;;;;;5064378;28;14673;-70
2024/02/19 21:42:37;;;;;;;;;;;;;;;;;;5063365;28;8643;-71
2024/02/19 21:45:03;;;;;;;;;;;;;;;;;;5063349;28;7531;-71
2024/02/19 21:47:28;;;;;;;;;;;;;;;;;;5065020;28;7979;-71
2024/02/19 21:49:54;;;;;;;;;;;;;;;;;;5062263;28;8667;-71
2024/02/19 21:52:19;;;;;;;;;;;;;;;;;;5064270;28;13456;-71
2024/02/19 21:54:45;;;;;;;;;;;;;;;;;;5065212;28;14201;-71
2024/02/19 21:57:10;;;;;;;;;;;;;;;;;;5065625;28;14005;-71
2024/02/19 21:59:35;;;;;;;;;;;;;;;;;;5065556;28;14219;-71
2024/02/19 22:02:00;;;;;;;;;;;;;;;;;;5063602;28;14010;-71
2024/02/19 22:04:25;;;;;;;;;;;;;;;;;;5063746;28;14104;-71
2024/02/19 22:06:50;;;;;;;;;;;;;;;;;;5064978;28;14110;-71
2024/02/19 22:09:15;;;;;;;;;;;;;;;;;;5065191;28;13958;-71
2024/02/19 22:11:40;;;;;;;;;;;;;;;;;;5063742;28;14077;-71
2024/02/19 22:14:06;;;;;;;;;;;;;;;;;;5055862;28;13972;-70
2024/02/19 22:16:32;;;;;;;;;;;;;;;;;;5048894;28;14080;-71
2024/02/19 22:18:57;;;;;;;;;;;;;;;;;;5051575;28;13948;-71
2024/02/19 22:21:22;;;;;;;;;;;;;;;;;;5050111;28;14056;-71
2024/02/19 22:23:47;;;;;;;;;;;;;;;;;;5049842;28;14279;-70
2024/02/19 22:26:12;;;;;;;;;;;;;;;;;;5051365;28;14748;-70
2024/02/19 22:28:37;;;;;;;;;;;;;;;;;;5051301;28;14111;-71
2024/02/19 22:31:05;;;;;;;;;;;;;;;;;;5051120;28;14004;-70
2024/02/19 22:33:30;;;;;;;;;;;;;;;;;;5049919;28;14107;-70
2024/02/19 22:35:55;;;;;;;;;;;;;;;;;;5049345;28;13967;-70
2024/02/19 22:38:20;;;;;;;;;;;;;;;;;;5002275;28;14099;-70
2024/02/19 22:41:42;;;;;;;;;;;;;;;;;;4900828;27;13806;-71
2024/02/19 22:44:07;;;;;;;;;;;;;;;;;;5090509;27;14170;-70
2024/02/19 22:46:32;;;;;;;;;;;;;;;;;;5130957;27;14097;-69
2024/02/19 22:48:58;;;;;;;;;;;;;;;;;;5131154;27;13990;-71
2024/02/19 22:51:23;;;;;;;;;;;;;;;;;;5131598;27;14110;-70
2024/02/19 22:53:48;;;;;;;;;;;;;;;;;;5136556;27;14166;-70
2024/02/19 22:56:14;;;;;;;;;;;;;;;;;;5119819;27;13890;-70
2024/02/19 22:58:39;;;;;;;;;;;;;;;;;;5137176;27;14074;-72
2024/02/19 23:01:04;;;;;;;;;;;;;;;;;;5118152;27;13933;-71
2024/02/19 23:03:29;;;;;;;;;;;;;;;;;;5138551;27;14789;-76
2024/02/19 23:05:54;;;;;;;;;;;;;;;;;;5136753;27;14037;-76
2024/02/19 23:08:19;;;;;;;;;;;;;;;;;;5118808;27;14995;-75
2024/02/19 23:10:45;;;;;;;;;;;;;;;;;;5136802;27;14910;-75
2024/02/19 23:13:10;;;;;;;;;;;;;;;;;;5117798;27;14039;-74
